createdAt,value
2018-07-24T00:01:43.360Z,79.39
2018-07-24T00:04:15.799Z,79.55
2018-07-24T00:06:52.936Z,79.73
2018-07-24T00:09:26.765Z,80.28
2018-07-24T00:12:00.126Z,80.28
2018-07-24T00:14:32.879Z,80.23
2018-07-24T00:17:05.529Z,80.40
2018-07-24T00:19:38.086Z,80.47
2018-07-24T00:22:11.590Z,81.28
2018-07-24T00:24:44.081Z,81.16
2018-07-24T00:27:17.445Z,81.46
2018-07-24T00:29:51.262Z,81.49
2018-07-24T00:32:23.786Z,81.51
2018-07-24T00:34:56.219Z,81.53
2018-07-24T00:37:31.033Z,82.15
2018-07-24T00:40:04.113Z,82.43
2018-07-24T00:42:36.792Z,82.58
2018-07-24T00:45:09.502Z,82.97
2018-07-24T00:47:45.677Z,82.66
2018-07-24T00:50:19.253Z,82.66
2018-07-24T00:52:52.253Z,82.87
2018-07-24T00:55:26.191Z,82.50
2018-07-24T00:57:59.350Z,82.10
2018-07-24T01:00:33.323Z,81.74
2018-07-24T01:03:06.371Z,81.70
2018-07-24T01:05:39.016Z,81.86
2018-07-24T01:08:13.028Z,82.06
2018-07-24T01:10:45.583Z,82.32
2018-07-24T01:13:20.106Z,82.71
2018-07-24T01:15:54.574Z,82.75
2018-07-24T01:18:27.466Z,83.04
2018-07-24T01:21:00.706Z,83.31
2018-07-24T01:23:35.018Z,83.29
2018-07-24T01:26:07.884Z,83.34
2018-07-24T01:28:40.942Z,83.46
2018-07-24T01:31:16.936Z,83.47
2018-07-24T01:33:54.476Z,83.58
2018-07-24T01:36:26.874Z,83.85
2018-07-24T01:39:01.382Z,84.06
2018-07-24T01:41:34.854Z,84.02
2018-07-24T01:44:08.157Z,84.24
2018-07-24T01:46:43.229Z,84.44
2018-07-24T01:49:15.866Z,84.63
2018-07-24T01:51:48.455Z,84.14
2018-07-24T01:54:23.273Z,84.32
2018-07-24T01:56:56.001Z,84.99
2018-07-24T01:59:28.632Z,85.10
2018-07-24T02:02:01.594Z,85.00
2018-07-24T02:04:34.468Z,84.64
2018-07-24T02:07:07.013Z,84.37
2018-07-24T02:09:40.270Z,84.18
2018-07-24T02:12:13.560Z,84.72
2018-07-24T02:14:46.135Z,84.62
2018-07-24T02:17:19.114Z,84.93
2018-07-24T02:19:51.675Z,85.47
2018-07-24T02:22:24.188Z,85.82
2018-07-24T02:24:57.117Z,85.62
2018-07-24T02:27:29.849Z,85.60
2018-07-24T02:30:04.716Z,86.96
2018-07-24T02:32:38.904Z,86.46
2018-07-24T02:35:11.388Z,86.40
2018-07-24T02:37:44.341Z,86.34
2018-07-24T02:40:17.187Z,86.06
2018-07-24T02:42:50.685Z,86.16
2018-07-24T02:45:23.913Z,86.24
2018-07-24T02:47:56.824Z,86.51
2018-07-24T02:50:29.373Z,86.54
2018-07-24T02:53:03.774Z,86.38
2018-07-24T02:55:36.621Z,86.60
2018-07-24T02:58:09.221Z,86.70
2018-07-24T03:00:41.687Z,86.77
2018-07-24T03:03:14.473Z,87.26
2018-07-24T03:05:46.884Z,86.86
2018-07-24T03:08:19.767Z,87.16
2018-07-24T03:10:52.869Z,86.91
2018-07-24T03:13:24.652Z,87.12
2018-07-24T03:15:57.464Z,87.29
2018-07-24T03:18:30.557Z,87.43
2018-07-24T03:21:03.202Z,87.39
2018-07-24T03:23:36.836Z,87.25
2018-07-24T03:26:10.493Z,88.12
2018-07-24T03:28:43.797Z,87.63
2018-07-24T03:31:16.413Z,87.37
2018-07-24T03:33:50.180Z,87.65
2018-07-24T03:36:22.737Z,87.83
2018-07-24T03:38:55.328Z,87.44
2018-07-24T03:41:29.017Z,87.63
2018-07-24T03:44:02.495Z,87.41
2018-07-24T03:46:37.754Z,87.72
2018-07-24T03:49:10.584Z,88.19
2018-07-24T03:51:43.115Z,88.04
2018-07-24T03:54:15.704Z,88.24
2018-07-24T03:56:53.781Z,88.44
2018-07-24T03:59:27.989Z,88.68
2018-07-24T04:02:02.129Z,88.43
2018-07-24T04:04:34.621Z,88.65
2018-07-24T04:07:07.188Z,88.31
2018-07-24T04:09:40.145Z,88.02
2018-07-24T04:12:12.749Z,88.21
2018-07-24T04:14:45.297Z,88.31
2018-07-24T04:17:18.135Z,88.21
2018-07-24T04:19:50.950Z,88.04
2018-07-24T04:22:23.681Z,87.84
2018-07-24T04:24:56.468Z,88.23
2018-07-24T04:27:29.037Z,87.99
2018-07-24T04:30:05.440Z,87.99
2018-07-24T04:32:38.330Z,87.77
2018-07-24T04:35:10.894Z,87.73
2018-07-24T04:37:44.367Z,87.69
2018-07-24T04:40:18.280Z,87.56
2018-07-24T04:42:51.161Z,87.63
2018-07-24T04:45:23.740Z,87.40
2018-07-24T04:47:56.553Z,87.28
2018-07-24T04:50:30.525Z,86.89
2018-07-24T04:53:03.238Z,86.59
2018-07-24T04:55:37.042Z,86.57
2018-07-24T04:58:09.996Z,86.71
2018-07-24T05:00:42.612Z,86.73
2018-07-24T05:03:15.659Z,86.71
2018-07-24T05:05:48.164Z,86.60
2018-07-24T05:08:21.232Z,86.36
2018-07-24T05:10:53.806Z,86.18
2018-07-24T05:13:27.950Z,86.09
2018-07-24T05:16:00.601Z,85.66
2018-07-24T05:18:33.924Z,84.95
2018-07-24T05:21:06.465Z,84.48
2018-07-24T05:23:39.160Z,83.92
2018-07-24T05:26:11.939Z,83.44
2018-07-24T05:28:45.863Z,83.23
2018-07-24T05:31:18.645Z,83.11
2018-07-24T05:33:51.899Z,82.90
2018-07-24T05:36:25.843Z,82.68
2018-07-24T05:38:59.100Z,81.86
2018-07-24T05:41:31.672Z,81.22
2018-07-24T05:44:08.732Z,80.70
2018-07-24T05:46:41.580Z,80.26
2018-07-24T05:49:15.077Z,79.67
2018-07-24T05:51:48.003Z,79.19
2018-07-24T05:54:23.797Z,78.71
2018-07-24T05:56:56.568Z,78.10
2018-07-24T05:59:30.680Z,77.54
2018-07-24T06:02:06.452Z,76.87
2018-07-24T06:04:38.877Z,75.91
2018-07-24T06:07:13.123Z,75.05
2018-07-24T06:09:45.620Z,74.37
2018-07-24T06:12:21.681Z,74.19
2018-07-24T06:14:54.860Z,73.51
2018-07-24T06:17:29.784Z,73.15
2018-07-24T06:20:08.116Z,72.90
2018-07-24T06:22:40.709Z,72.45
2018-07-24T06:25:13.563Z,71.75
2018-07-24T06:27:47.252Z,71.65
2018-07-24T06:30:19.745Z,70.96
2018-07-24T06:32:52.636Z,69.78
2018-07-24T06:35:25.408Z,69.32
2018-07-24T06:37:58.094Z,68.78
2018-07-24T06:40:31.828Z,67.92
2018-07-24T06:43:22.914Z,66.68
2018-07-24T06:46:00.149Z,65.69
2018-07-24T06:48:34.307Z,65.30
2018-07-24T06:51:07.833Z,64.87
2018-07-24T06:53:40.747Z,63.38
2018-07-24T06:56:14.226Z,63.64
2018-07-24T06:58:46.763Z,62.29
2018-07-24T07:01:20.129Z,61.71
2018-07-24T07:03:53.544Z,60.25
2018-07-24T07:06:27.293Z,60.63
2018-07-24T07:09:05.724Z,59.83
2018-07-24T07:11:42.300Z,58.71
2018-07-24T07:14:15.872Z,57.77
2018-07-24T07:16:49.817Z,56.34
2018-07-24T07:19:26.944Z,54.98
2018-07-24T07:22:00.309Z,51.57
2018-07-24T07:24:34.512Z,52.46
2018-07-24T07:27:08.942Z,52.51
2018-07-24T07:29:42.964Z,52.77
2018-07-24T07:32:16.622Z,48.82
2018-07-24T07:34:49.000Z,48.52
2018-07-24T07:37:21.618Z,45.01
2018-07-24T07:39:54.479Z,44.23
2018-07-24T07:42:31.332Z,43.42
2018-07-24T07:45:07.593Z,43.08
2018-07-24T07:47:40.042Z,40.83
2018-07-24T07:50:13.226Z,40.74
2018-07-24T07:52:50.235Z,35.83
2018-07-24T07:55:24.530Z,33.38
2018-07-24T07:57:57.948Z,32.24
2018-07-24T08:00:31.372Z,32.01
2018-07-24T08:03:04.699Z,29.29
2018-07-24T08:05:39.837Z,29.93
2018-07-24T08:08:12.787Z,31.45
2018-07-24T08:10:49.011Z,31.34
2018-07-24T08:13:23.190Z,30.64
2018-07-24T08:16:01.297Z,30.71
2018-07-24T08:18:34.457Z,29.56
2018-07-24T08:21:10.561Z,29.66
2018-07-24T08:23:43.828Z,29.70
2018-07-24T08:26:17.608Z,29.16
2018-07-24T08:28:51.469Z,29.04
2018-07-24T08:31:25.310Z,29.34
2018-07-24T08:34:00.976Z,29.01
2018-07-24T08:36:36.775Z,28.57
2018-07-24T08:39:12.176Z,28.78
2018-07-24T08:41:47.216Z,28.91
2018-07-24T08:44:28.215Z,28.46
2018-07-24T08:47:02.848Z,28.97
2018-07-24T08:49:35.671Z,29.83
2018-07-24T08:52:11.476Z,30.08
2018-07-24T08:54:44.388Z,30.29
2018-07-24T08:57:17.041Z,30.14
2018-07-24T08:59:51.619Z,28.91
2018-07-24T09:02:24.111Z,29.30
2018-07-24T09:04:58.053Z,29.33
2018-07-24T09:07:40.676Z,28.11
2018-07-24T09:10:19.902Z,27.35
2018-07-24T09:12:54.201Z,27.32
2018-07-24T09:15:30.080Z,27.75
2018-07-24T09:18:04.752Z,26.23
2018-07-24T09:20:37.344Z,26.12
2018-07-24T09:23:10.012Z,25.05
2018-07-24T09:25:42.965Z,24.74
2018-07-24T09:28:15.550Z,25.09
2018-07-24T09:30:48.081Z,24.63
2018-07-24T09:33:20.924Z,24.20
2018-07-24T09:35:54.760Z,25.41
2018-07-24T09:38:30.465Z,25.51
2018-07-24T09:41:06.886Z,25.58
2018-07-24T09:43:39.399Z,26.06
2018-07-24T09:46:12.335Z,26.19
2018-07-24T09:48:46.502Z,25.36
2018-07-24T09:51:20.218Z,24.83
2018-07-24T09:53:52.746Z,24.08
2018-07-24T09:56:26.625Z,23.37
2018-07-24T09:59:00.701Z,23.28
2018-07-24T10:01:35.720Z,22.81
2018-07-24T10:04:09.656Z,23.08
2018-07-24T10:06:42.886Z,23.66
2018-07-24T10:09:16.316Z,24.04
2018-07-24T10:11:50.460Z,24.07
2018-07-24T10:14:23.873Z,22.84
2018-07-24T10:16:57.062Z,22.50
2018-07-24T10:19:32.601Z,22.14
2018-07-24T10:22:07.220Z,22.50
2018-07-24T10:24:43.139Z,22.71
2018-07-24T10:27:19.510Z,22.85
2018-07-24T10:29:58.979Z,22.98
2018-07-24T10:32:33.618Z,23.27
2018-07-24T10:35:09.478Z,23.25
2018-07-24T10:37:44.110Z,22.40
2018-07-24T10:40:16.871Z,22.02
2018-07-24T10:42:49.995Z,22.07
2018-07-24T10:45:23.892Z,21.85
2018-07-24T10:47:59.636Z,21.68
2018-07-24T10:50:53.279Z,21.68
2018-07-24T10:53:26.294Z,21.35
2018-07-24T10:55:59.416Z,21.68
2018-07-24T10:58:32.313Z,21.94
2018-07-24T11:01:11.499Z,21.92
2018-07-24T11:03:45.572Z,21.98
2018-07-24T11:06:18.482Z,22.40
2018-07-24T11:08:51.964Z,22.45
2018-07-24T11:11:24.830Z,21.88
2018-07-24T11:13:58.223Z,21.08
2018-07-24T11:16:31.469Z,20.97
2018-07-24T11:19:07.036Z,20.59
2018-07-24T11:21:49.815Z,20.58
2018-07-24T11:24:29.509Z,20.35
2018-07-24T11:27:05.655Z,19.69
2018-07-24T11:29:39.417Z,20.54
2018-07-24T11:32:13.650Z,20.36
2018-07-24T11:34:49.774Z,20.11
2018-07-24T11:37:24.378Z,18.96
2018-07-24T11:39:59.717Z,19.03
2018-07-24T11:42:36.928Z,18.91
2018-07-24T11:45:26.521Z,18.02
2018-07-24T11:48:04.624Z,18.38
2018-07-24T11:50:38.068Z,18.74
2018-07-24T11:53:16.501Z,19.18
2018-07-24T11:55:49.140Z,19.30
2018-07-24T11:58:24.352Z,19.37
2018-07-24T12:00:58.641Z,19.00
2018-07-24T12:03:34.854Z,19.01
2018-07-24T12:06:08.029Z,18.74
2018-07-24T12:08:48.732Z,19.45
2018-07-24T12:11:31.416Z,20.30
2018-07-24T12:14:06.353Z,20.09
2018-07-24T12:16:40.073Z,19.61
2018-07-24T12:19:14.989Z,19.18
2018-07-24T12:21:48.697Z,19.70
2018-07-24T12:24:24.833Z,19.51
2018-07-24T12:26:59.022Z,18.40
2018-07-24T12:29:31.752Z,18.52
2018-07-24T12:32:08.381Z,19.12
2018-07-24T12:34:41.908Z,19.66
2018-07-24T12:37:15.102Z,19.88
2018-07-24T12:39:49.207Z,20.07
2018-07-24T12:42:21.972Z,20.05
2018-07-24T12:44:55.814Z,19.91
2018-07-24T12:47:35.587Z,19.41
2018-07-24T12:50:12.801Z,19.26
2018-07-24T12:52:48.819Z,19.41
2018-07-24T12:55:24.212Z,19.37
2018-07-24T12:57:59.785Z,18.22
2018-07-24T13:00:33.991Z,18.00
2018-07-24T13:03:07.661Z,17.60
2018-07-24T13:05:42.686Z,16.97
2018-07-24T13:08:18.040Z,17.81
2018-07-24T13:10:54.904Z,18.45
2018-07-24T13:13:31.068Z,18.52
2018-07-24T13:16:06.110Z,18.78
2018-07-24T13:18:48.924Z,19.54
2018-07-24T13:21:22.848Z,18.92
2018-07-24T13:24:01.543Z,18.59
2018-07-24T13:26:37.776Z,18.29
2018-07-24T13:29:13.220Z,18.63
2018-07-24T13:31:50.538Z,18.72
2018-07-24T13:34:23.752Z,18.63
2018-07-24T13:37:09.257Z,18.66
2018-07-24T13:39:45.489Z,18.65
2018-07-24T13:42:23.006Z,18.31
2018-07-24T13:44:57.522Z,17.55
2018-07-24T13:47:30.689Z,17.00
2018-07-24T13:50:05.963Z,16.51
2018-07-24T13:52:39.940Z,16.57
2018-07-24T13:55:17.337Z,16.63
2018-07-24T13:57:50.559Z,16.14
2018-07-24T14:00:25.671Z,16.29
2018-07-24T14:02:58.472Z,17.02
2018-07-24T14:05:33.934Z,17.53
2018-07-24T14:08:09.509Z,18.20
2018-07-24T14:10:46.058Z,18.84
2018-07-24T14:13:19.104Z,17.94
2018-07-24T14:15:51.979Z,17.38
2018-07-24T14:18:25.584Z,17.54
2018-07-24T14:20:58.913Z,18.01
2018-07-24T14:23:34.182Z,17.76
2018-07-24T14:26:09.210Z,17.72
2018-07-24T14:28:41.903Z,17.25
2018-07-24T14:31:15.471Z,16.80
2018-07-24T14:33:51.247Z,16.77
2018-07-24T14:36:29.920Z,16.00
2018-07-24T14:39:06.653Z,15.96
2018-07-24T14:41:44.321Z,16.32
2018-07-24T14:44:19.379Z,16.48
2018-07-24T14:46:52.862Z,16.53
2018-07-24T14:49:28.458Z,16.76
2018-07-24T14:52:03.087Z,17.05
2018-07-24T14:54:37.738Z,16.59
2018-07-24T14:57:14.151Z,16.13
2018-07-24T14:59:50.560Z,16.10
2018-07-24T15:02:28.605Z,16.71
2018-07-24T15:05:05.058Z,16.78
2018-07-24T15:07:40.325Z,17.03
2018-07-24T15:10:14.086Z,16.80
2018-07-24T15:12:49.154Z,17.04
2018-07-24T15:15:22.895Z,16.57
2018-07-24T15:18:00.485Z,15.96
2018-07-24T15:20:34.001Z,15.50
2018-07-24T15:23:16.439Z,15.35
2018-07-24T15:25:49.509Z,16.40
2018-07-24T15:28:25.485Z,16.33
2018-07-24T15:30:59.525Z,16.99
2018-07-24T15:33:36.453Z,16.40
2018-07-24T15:36:10.861Z,15.50
2018-07-24T15:38:44.330Z,15.35
2018-07-24T15:41:22.366Z,15.51
2018-07-24T15:43:56.483Z,15.85
2018-07-24T15:46:30.574Z,16.44
2018-07-24T15:49:04.016Z,16.60
2018-07-24T15:51:38.957Z,16.59
2018-07-24T15:54:12.080Z,16.23
2018-07-24T15:56:50.054Z,16.47
2018-07-24T15:59:25.372Z,16.84
2018-07-24T16:02:02.411Z,17.21
2018-07-24T16:04:37.604Z,17.35
2018-07-24T16:07:11.401Z,18.10
2018-07-24T16:09:47.105Z,17.93
2018-07-24T16:12:21.460Z,17.91
2018-07-24T16:14:53.968Z,18.16
2018-07-24T16:17:27.857Z,17.89
2018-07-24T16:20:03.535Z,18.12
2018-07-24T16:22:38.020Z,17.64
2018-07-24T16:25:12.102Z,17.51
2018-07-24T16:27:44.698Z,17.15
2018-07-24T16:30:16.978Z,16.78
2018-07-24T16:32:50.576Z,17.21
2018-07-24T16:35:23.163Z,16.82
2018-07-24T16:37:55.992Z,16.31
2018-07-24T16:40:29.913Z,16.77
2018-07-24T16:43:05.815Z,17.35
2018-07-24T16:45:39.461Z,17.82
2018-07-24T16:48:16.028Z,18.02
2018-07-24T16:50:50.580Z,17.33
2018-07-24T16:53:23.878Z,18.23
2018-07-24T16:55:58.076Z,18.33
2018-07-24T16:58:30.539Z,18.56
2018-07-24T17:01:06.328Z,18.06
2018-07-24T17:03:43.137Z,17.58
2018-07-24T17:06:15.746Z,17.05
2018-07-24T17:08:51.606Z,16.73
2018-07-24T17:11:26.549Z,16.34
2018-07-24T17:14:00.740Z,16.53
2018-07-24T17:16:43.702Z,16.59
2018-07-24T17:19:23.049Z,16.70
2018-07-24T17:21:58.341Z,17.72
2018-07-24T17:24:32.086Z,18.72
2018-07-24T17:27:11.500Z,18.91
2018-07-24T17:29:49.711Z,19.33
2018-07-24T17:32:24.696Z,20.34
2018-07-24T17:34:59.521Z,20.78
2018-07-24T17:37:34.223Z,20.99
2018-07-24T17:40:10.704Z,21.59
2018-07-24T17:42:47.081Z,21.84
2018-07-24T17:45:23.989Z,21.58
2018-07-24T17:47:57.830Z,21.97
2018-07-24T17:50:32.618Z,22.08
2018-07-24T17:53:06.791Z,22.48
2018-07-24T17:55:43.854Z,22.99
2018-07-24T17:58:22.670Z,23.50
2018-07-24T18:00:57.161Z,23.87
2018-07-24T18:03:31.953Z,24.19
2018-07-24T18:06:06.758Z,24.61
2018-07-24T18:08:49.961Z,24.81
2018-07-24T18:11:23.359Z,24.94
2018-07-24T18:13:58.986Z,25.29
2018-07-24T18:16:36.133Z,25.41
2018-07-24T18:19:10.784Z,25.80
2018-07-24T18:22:05.496Z,26.11
2018-07-24T18:24:39.383Z,26.48
2018-07-24T18:27:14.837Z,26.38
2018-07-24T18:29:48.789Z,27.11
2018-07-24T18:32:25.999Z,27.05
2018-07-24T18:34:59.767Z,28.20
2018-07-24T18:37:34.283Z,30.06
2018-07-24T18:40:08.678Z,30.75
2018-07-24T18:42:44.425Z,30.63
2018-07-24T18:45:17.880Z,30.34
2018-07-24T18:47:51.963Z,30.00
2018-07-24T18:50:28.041Z,30.16
2018-07-24T18:53:05.094Z,30.42
2018-07-24T18:55:38.296Z,30.64
2018-07-24T18:58:11.955Z,30.75
2018-07-24T19:00:47.872Z,30.99
2018-07-24T19:03:31.157Z,30.62
2018-07-24T19:06:07.459Z,30.84
2018-07-24T19:08:43.256Z,31.01
2018-07-24T19:11:19.578Z,31.18
2018-07-24T19:13:53.276Z,31.25
2018-07-24T19:16:27.661Z,31.38
2018-07-24T19:19:01.719Z,31.47
2018-07-24T19:21:35.212Z,31.55
2018-07-24T19:24:08.472Z,31.93
2018-07-24T19:26:51.090Z,32.17
2018-07-24T19:29:25.955Z,32.96
2018-07-24T19:31:59.207Z,33.94
2018-07-24T19:34:33.047Z,34.61
2018-07-24T19:37:06.792Z,34.84
2018-07-24T19:39:40.681Z,36.44
2018-07-24T19:42:16.217Z,37.19
2018-07-24T19:44:50.091Z,37.24
2018-07-24T19:47:27.343Z,37.62
2018-07-24T19:50:03.675Z,38.08
2018-07-24T19:52:39.510Z,38.91
2018-07-24T19:55:14.223Z,41.00
2018-07-24T19:57:48.343Z,42.24
2018-07-24T20:00:23.420Z,42.79
2018-07-24T20:02:56.923Z,42.69
2018-07-24T20:05:31.732Z,42.65
2018-07-24T20:08:14.404Z,43.10
2018-07-24T20:10:47.416Z,44.04
2018-07-24T20:13:23.461Z,44.90
2018-07-24T20:15:59.009Z,44.34
2018-07-24T20:18:33.181Z,44.72
2018-07-24T20:21:07.389Z,45.62
2018-07-24T20:23:40.817Z,46.33
2018-07-24T20:26:16.501Z,46.99
2018-07-24T20:28:55.477Z,46.73
2018-07-24T20:31:29.588Z,47.33
2018-07-24T20:34:05.756Z,47.72
2018-07-24T20:36:40.483Z,47.87
2018-07-24T20:39:16.631Z,47.85
2018-07-24T20:41:53.955Z,48.24
2018-07-24T20:44:30.328Z,48.96
2018-07-24T20:47:03.704Z,48.87
2018-07-24T20:49:38.022Z,49.16
2018-07-24T20:52:11.085Z,49.70
2018-07-24T20:54:47.935Z,49.78
2018-07-24T20:57:21.865Z,50.18
2018-07-24T20:59:55.353Z,50.11
2018-07-24T21:02:29.101Z,50.16
2018-07-24T21:05:02.894Z,50.82
2018-07-24T21:07:39.960Z,50.84
2018-07-24T21:10:18.068Z,51.04
2018-07-24T21:12:53.046Z,51.96
2018-07-24T21:15:32.080Z,52.98
2018-07-24T21:18:06.259Z,53.36
2018-07-24T21:20:39.861Z,53.82
2018-07-24T21:23:12.436Z,54.26
2018-07-24T21:25:47.084Z,54.81
2018-07-24T21:28:24.162Z,55.75
2018-07-24T21:30:56.664Z,55.44
2018-07-24T21:33:31.108Z,55.68
2018-07-24T21:36:07.065Z,55.09
2018-07-24T21:38:41.277Z,54.84
2018-07-24T21:41:19.461Z,54.93
2018-07-24T21:43:52.844Z,55.38
2018-07-24T21:46:29.658Z,55.46
2018-07-24T21:49:06.344Z,55.35
2018-07-24T21:51:40.514Z,55.34
2018-07-24T21:54:13.591Z,56.47
2018-07-24T21:56:47.018Z,57.02
2018-07-24T21:59:23.649Z,57.50
2018-07-24T22:01:58.325Z,57.78
2018-07-24T22:04:32.579Z,58.46
2018-07-24T22:07:08.345Z,58.59
2018-07-24T22:09:41.597Z,58.67
2018-07-24T22:12:17.793Z,59.00
2018-07-24T22:14:52.330Z,59.49
2018-07-24T22:17:26.628Z,60.09
2018-07-24T22:20:00.618Z,60.37
2018-07-24T22:22:36.455Z,60.49
2018-07-24T22:25:10.583Z,60.86
2018-07-24T22:27:45.525Z,60.40
2018-07-24T22:30:22.632Z,59.98
2018-07-24T22:32:59.975Z,59.84
2018-07-24T22:35:32.836Z,59.55
2018-07-24T22:38:16.442Z,59.10
2018-07-24T22:40:52.837Z,59.10
2018-07-24T22:43:33.797Z,58.61
2018-07-24T22:46:16.113Z,57.58
2018-07-24T22:48:48.657Z,56.86
2018-07-24T22:51:25.312Z,56.76
2018-07-24T22:54:08.888Z,56.54
2018-07-24T22:56:42.756Z,56.35
2018-07-24T22:59:17.298Z,56.20
2018-07-24T23:01:49.797Z,56.89
2018-07-24T23:04:25.566Z,57.35
2018-07-24T23:06:59.795Z,57.79
2018-07-24T23:09:34.450Z,59.10
2018-07-24T23:12:12.974Z,59.15
2018-07-24T23:14:46.981Z,59.58
2018-07-24T23:17:21.487Z,59.68
2018-07-24T23:19:53.837Z,59.12
2018-07-24T23:22:28.936Z,58.94
2018-07-24T23:25:03.356Z,59.10
2018-07-24T23:27:38.044Z,59.13
2018-07-24T23:30:12.790Z,59.38
2018-07-24T23:32:45.553Z,59.76
2018-07-24T23:35:18.951Z,59.84
2018-07-24T23:37:52.816Z,59.77
2018-07-24T23:40:28.819Z,60.35
2018-07-24T23:43:02.666Z,60.36
2018-07-24T23:45:37.336Z,60.75
2018-07-24T23:48:10.496Z,61.48
2018-07-24T23:50:45.205Z,61.82
2018-07-24T23:53:17.819Z,62.16
2018-07-24T23:55:55.957Z,62.43
2018-07-24T23:58:30.033Z,63.19
